createdAt,value
2018-11-06T00:05:03.288Z,28.83
2018-11-06T00:10:07.936Z,31.53
2018-11-06T00:15:12.111Z,27.13
2018-11-06T00:20:16.612Z,28.80
2018-11-06T00:25:27.481Z,31.67
2018-11-06T00:30:31.929Z,30.73
2018-11-06T00:35:36.349Z,34.53
2018-11-06T00:40:40.893Z,29.35
2018-11-06T00:45:45.329Z,30.00
2018-11-06T00:50:49.769Z,33.57
2018-11-06T00:55:54.232Z,27.83
2018-11-06T01:00:58.705Z,26.30
2018-11-06T01:06:03.181Z,31.20
2018-11-06T01:11:07.655Z,27.83
2018-11-06T01:16:12.124Z,31.60
2018-11-06T01:21:16.548Z,25.93
2018-11-06T01:26:20.996Z,30.25
2018-11-06T01:31:25.549Z,29.33
2018-11-06T01:36:30.005Z,31.17
2018-11-06T01:41:34.428Z,29.47
2018-11-06T01:46:38.853Z,30.40
2018-11-06T01:51:43.440Z,31.63
2018-11-06T01:56:47.868Z,25.93
2018-11-06T02:01:52.328Z,27.00
2018-11-06T02:06:56.756Z,33.27
2018-11-06T02:12:01.197Z,32.23
2018-11-06T02:17:05.672Z,30.40
2018-11-06T02:22:10.097Z,33.03
2018-11-06T02:27:14.533Z,32.27
2018-11-06T02:32:19.298Z,28.97
2018-11-06T02:37:23.843Z,31.40
2018-11-06T02:42:28.269Z,27.83
2018-11-06T02:47:32.684Z,29.47
2018-11-06T02:52:37.249Z,37.42
2018-11-06T02:57:42.121Z,29.23
2018-11-06T03:02:47.698Z,35.57
2018-11-06T03:07:52.141Z,30.90
2018-11-06T03:12:56.570Z,30.20
2018-11-06T03:18:00.990Z,29.40
2018-11-06T03:23:05.452Z,31.67
2018-11-06T03:28:09.877Z,35.20
2018-11-06T03:33:14.359Z,37.23
2018-11-06T03:38:18.772Z,30.90
2018-11-06T03:43:23.204Z,33.83
2018-11-06T03:48:27.644Z,35.67
2018-11-06T03:53:32.081Z,36.65
2018-11-06T03:58:36.501Z,33.33
2018-11-06T04:03:41.056Z,34.67
2018-11-06T04:08:45.473Z,36.07
2018-11-06T04:13:49.917Z,33.70
2018-11-06T04:18:54.344Z,30.40
2018-11-06T04:23:58.771Z,37.13
2018-11-06T04:29:03.733Z,39.08
2018-11-06T04:34:08.958Z,39.83
2018-11-06T04:39:13.424Z,41.07
2018-11-06T04:44:17.865Z,38.20
2018-11-06T04:49:22.668Z,37.83
2018-11-06T04:54:27.089Z,37.93
2018-11-06T04:59:31.540Z,40.47
2018-11-06T05:04:36.038Z,43.70
2018-11-06T05:09:40.501Z,42.00
2018-11-06T05:14:45.148Z,42.67
2018-11-06T05:19:49.567Z,40.37
2018-11-06T05:24:54.006Z,38.03
2018-11-06T05:29:58.431Z,44.20
2018-11-06T05:35:02.955Z,40.10
2018-11-06T05:40:24.454Z,43.47
2018-11-06T05:45:29.152Z,47.13
2018-11-06T05:50:33.696Z,41.60
2018-11-06T05:55:38.293Z,38.07
2018-11-06T06:00:42.929Z,42.67
2018-11-06T06:05:47.289Z,39.77
2018-11-06T06:10:51.744Z,35.80
2018-11-06T06:15:56.269Z,41.97
2018-11-06T06:21:00.688Z,41.87
2018-11-06T06:26:05.242Z,42.43
2018-11-06T06:31:09.672Z,45.20
2018-11-06T06:36:14.217Z,44.70
2018-11-06T06:41:18.639Z,42.03
2018-11-06T06:46:23.141Z,41.45
2018-11-06T06:51:27.621Z,40.10
2018-11-06T06:56:32.075Z,38.67
2018-11-06T07:01:36.535Z,43.20
2018-11-06T07:06:40.981Z,40.73
2018-11-06T07:11:45.928Z,41.43
2018-11-06T07:16:50.368Z,41.07
2018-11-06T07:21:54.807Z,39.70
2018-11-06T07:26:59.321Z,42.73
2018-11-06T07:32:03.850Z,44.47
2018-11-06T07:37:08.293Z,46.77
2018-11-06T07:42:12.776Z,44.53
2018-11-06T07:47:17.275Z,45.53
2018-11-06T07:52:21.793Z,45.20
2018-11-06T07:57:26.568Z,53.10
2018-11-06T08:02:31.012Z,41.20
2018-11-06T08:07:35.464Z,46.10
2018-11-06T08:12:41.308Z,45.03
2018-11-06T08:17:46.352Z,43.30
2018-11-06T08:22:50.914Z,51.23
2018-11-06T08:27:55.478Z,45.30
2018-11-06T08:32:59.938Z,49.07
2018-11-06T08:38:04.377Z,49.70
2018-11-06T08:43:08.813Z,49.43
2018-11-06T08:48:13.258Z,40.70
2018-11-06T08:53:17.774Z,45.97
2018-11-06T08:58:22.362Z,56.27
2018-11-06T09:03:26.811Z,45.03
2018-11-06T09:08:31.261Z,44.87
2018-11-06T09:13:35.708Z,44.03
2018-11-06T09:18:40.192Z,43.53
2018-11-06T09:23:44.622Z,42.27
2018-11-06T09:28:49.065Z,44.93
2018-11-06T09:33:53.505Z,43.27
2018-11-06T09:38:57.981Z,41.17
2018-11-06T09:44:02.404Z,37.97
2018-11-06T09:49:07.711Z,40.43
2018-11-06T09:54:12.218Z,41.97
2018-11-06T09:59:16.729Z,43.33
2018-11-06T10:04:21.241Z,40.03
2018-11-06T10:09:25.730Z,39.00
2018-11-06T10:14:30.343Z,36.00
2018-11-06T10:19:34.788Z,38.60
2018-11-06T10:24:39.224Z,36.00
2018-11-06T10:29:43.712Z,37.27
2018-11-06T10:34:48.225Z,37.23
2018-11-06T10:39:52.676Z,32.90
2018-11-06T10:44:57.125Z,33.47
2018-11-06T10:50:01.640Z,32.37
2018-11-06T10:55:07.396Z,30.93
2018-11-06T11:00:18.553Z,29.57
2018-11-06T11:05:24.813Z,36.17
2018-11-06T11:10:29.270Z,31.17
2018-11-06T11:15:33.700Z,34.07
2018-11-06T11:20:38.330Z,30.50
2018-11-06T11:25:42.812Z,31.03
2018-11-06T11:30:47.274Z,32.63
2018-11-06T11:35:51.704Z,31.30
2018-11-06T11:40:56.173Z,32.33
2018-11-06T11:46:00.759Z,30.80
2018-11-06T11:51:05.582Z,27.13
2018-11-06T11:56:10.077Z,28.47
2018-11-06T12:01:14.584Z,26.63
2018-11-06T12:06:19.045Z,29.83
2018-11-06T12:11:23.594Z,30.90
2018-11-06T12:16:28.125Z,31.10
2018-11-06T12:21:32.594Z,24.40
2018-11-06T12:26:37.052Z,26.50
2018-11-06T12:31:41.513Z,25.87
2018-11-06T12:36:46.028Z,29.60
2018-11-06T12:41:50.509Z,29.73
2018-11-06T12:46:55.018Z,25.60
2018-11-06T12:51:59.585Z,25.47
2018-11-06T12:57:04.116Z,30.60
2018-11-06T13:02:08.795Z,29.30
2018-11-06T13:07:13.746Z,29.03
2018-11-06T13:12:18.533Z,27.47
2018-11-06T13:17:23.205Z,28.77
2018-11-06T13:22:27.753Z,30.03
2018-11-06T13:27:32.212Z,25.40
2018-11-06T13:32:36.927Z,27.07
2018-11-06T13:37:41.484Z,31.13
2018-11-06T13:42:46.530Z,33.90
2018-11-06T13:47:51.073Z,31.93
2018-11-06T13:52:55.523Z,27.47
2018-11-06T13:58:00.002Z,34.23
2018-11-06T14:03:04.498Z,34.10
2018-11-06T14:08:08.937Z,27.30
2018-11-06T14:13:13.413Z,32.30
2018-11-06T14:18:17.960Z,32.67
2018-11-06T14:23:22.652Z,30.30
2018-11-06T14:28:27.103Z,36.50
2018-11-06T14:33:31.545Z,37.77
2018-11-06T14:38:36.086Z,34.17
2018-11-06T14:43:40.537Z,30.83
2018-11-06T14:48:45.112Z,34.83
2018-11-06T14:53:49.450Z,34.60
2018-11-06T14:58:53.969Z,34.03
2018-11-06T15:03:58.416Z,33.07
2018-11-06T15:09:02.905Z,33.70
2018-11-06T15:14:07.406Z,36.83
2018-11-06T15:19:11.853Z,35.43
2018-11-06T15:24:16.303Z,38.10
2018-11-06T15:29:20.776Z,35.80
2018-11-06T15:34:25.262Z,34.87
2018-11-06T15:39:29.738Z,52.37
2018-11-06T15:44:34.289Z,46.93
2018-11-06T15:49:38.826Z,45.00
2018-11-06T15:54:43.369Z,38.20
2018-11-06T15:59:47.896Z,41.07
2018-11-06T16:04:52.374Z,38.27
2018-11-06T16:09:56.817Z,42.07
2018-11-06T16:15:01.349Z,44.90
2018-11-06T16:20:07.597Z,42.97
2018-11-06T16:25:13.795Z,39.83
2018-11-06T16:30:19.944Z,38.23
2018-11-06T16:35:24.521Z,38.73
2018-11-06T16:40:29.062Z,42.70
2018-11-06T16:45:33.569Z,40.10
2018-11-06T16:50:38.100Z,44.20
2018-11-06T16:55:42.596Z,42.53
2018-11-06T17:00:47.195Z,43.60
2018-11-06T17:05:51.572Z,41.13
2018-11-06T17:10:56.051Z,47.93
2018-11-06T17:16:00.513Z,45.83
2018-11-06T17:21:04.969Z,51.67
2018-11-06T17:26:09.468Z,46.67
2018-11-06T17:31:13.981Z,45.40
2018-11-06T17:36:18.544Z,44.27
2018-11-06T17:41:22.977Z,41.27
2018-11-06T17:46:27.493Z,44.73
2018-11-06T17:51:31.919Z,37.93
2018-11-06T17:56:36.353Z,46.10
2018-11-06T18:01:42.138Z,40.70
2018-11-06T18:06:46.681Z,40.80
2018-11-06T18:11:51.124Z,43.17
2018-11-06T18:16:55.585Z,44.87
2018-11-06T18:22:00.085Z,42.87
2018-11-06T18:27:04.621Z,43.30
2018-11-06T18:32:09.086Z,46.37
2018-11-06T18:37:13.545Z,43.97
2018-11-06T18:42:17.981Z,44.10
2018-11-06T18:47:22.490Z,45.73
2018-11-06T18:52:27.005Z,40.67
2018-11-06T18:57:31.564Z,55.07
2018-11-06T19:02:43.992Z,40.93
2018-11-06T19:07:48.747Z,42.77
2018-11-06T19:12:53.260Z,41.00
2018-11-06T19:17:57.750Z,36.88
2018-11-06T19:23:02.226Z,44.63
2018-11-06T19:28:07.221Z,44.50
2018-11-06T19:33:11.659Z,41.70
2018-11-06T19:38:16.112Z,42.73
2018-11-06T19:43:20.606Z,45.57
2018-11-06T19:48:25.123Z,44.67
2018-11-06T19:53:29.968Z,45.33
2018-11-06T19:58:34.411Z,48.07
2018-11-06T20:03:39.012Z,45.27
2018-11-06T20:08:43.409Z,44.73
2018-11-06T20:13:47.932Z,42.10
2018-11-06T20:18:52.376Z,46.93
2018-11-06T20:23:56.843Z,42.93
2018-11-06T20:29:01.282Z,38.80
2018-11-06T20:34:05.829Z,43.10
2018-11-06T20:39:11.254Z,43.03
2018-11-06T20:44:15.706Z,42.47
2018-11-06T20:49:20.244Z,46.83
2018-11-06T20:54:24.686Z,44.27
2018-11-06T20:59:29.165Z,44.17
2018-11-06T21:04:33.609Z,50.13
2018-11-06T21:09:38.041Z,47.93
2018-11-06T21:14:42.629Z,49.90
2018-11-06T21:19:47.154Z,52.13
2018-11-06T21:24:51.637Z,43.57
2018-11-06T21:29:56.054Z,45.53
2018-11-06T21:35:00.513Z,47.07
2018-11-06T21:40:05.839Z,46.47
2018-11-06T21:45:11.564Z,46.07
2018-11-06T21:50:16.750Z,48.50
2018-11-06T21:55:21.236Z,51.53
2018-11-06T22:00:25.878Z,52.33
2018-11-06T22:05:30.318Z,46.77
2018-11-06T22:10:34.748Z,46.18
2018-11-06T22:15:39.184Z,48.23
2018-11-06T22:20:43.652Z,47.80
2018-11-06T22:25:48.093Z,47.70
2018-11-06T22:30:52.529Z,44.60
2018-11-06T22:35:56.964Z,50.67
2018-11-06T22:41:01.405Z,46.10
2018-11-06T22:46:06.033Z,45.55
2018-11-06T22:51:10.545Z,51.57
2018-11-06T22:56:14.976Z,50.47
2018-11-06T23:01:24.046Z,48.07
2018-11-06T23:06:28.521Z,42.07
2018-11-06T23:11:32.960Z,53.00
2018-11-06T23:16:37.396Z,53.50
2018-11-06T23:21:41.872Z,43.67
2018-11-06T23:26:46.305Z,44.63
2018-11-06T23:31:50.740Z,41.90
2018-11-06T23:36:55.177Z,43.77
2018-11-06T23:41:59.627Z,43.90
2018-11-06T23:47:04.049Z,50.47
2018-11-06T23:52:08.605Z,50.93
2018-11-06T23:57:13.043Z,49.67
